Time;durP1;ratioP1;P1;durP2;ratioP2;P2;SDS_P1;SDS_P2;PMS_P1;PMS_P2;Temp;Humidity;BMP_temperature;BMP_pressure;BME280_temperature;BME280_humidity;BME280_pressure;Samples;Min_cycle;Max_cycle;Signal;HPM_P1;HPM_P2
2023/09/12 00:00:00;;;;;;;11.33;9.17;;;;;;;;;;5093143;28;20062;-67
2023/09/12 00:02:25;;;;;;;11.40;9.77;;;;;;;;;;5093422;28;20285;-67
2023/09/12 00:04:50;;;;;;;12.20;9.80;;;;;;;;;;5092406;28;20278;-67
2023/09/12 00:07:16;;;;;;;15.90;10.37;;;;;;;;;;5092953;28;20278;-67
2023/09/12 00:09:41;;;;;;;13.25;10.52;;;;;;;;;;5093160;28;20833;-67
2023/09/12 00:12:06;;;;;;;12.60;10.07;;;;;;;;;;5091423;28;20040;-67
2023/09/12 00:14:31;;;;;;;12.17;9.90;;;;;;;;;;5087814;28;20097;-67
2023/09/12 00:16:57;;;;;;;10.87;9.00;;;;;;;;;;5092606;28;20270;-66
2023/09/12 00:19:22;;;;;;;11.30;9.10;;;;;;;;;;5093080;28;20273;-66
2023/09/12 00:21:47;;;;;;;11.43;9.03;;;;;;;;;;5087092;28;20278;-66
2023/09/12 00:24:12;;;;;;;12.85;10.20;;;;;;;;;;5092429;28;20289;-66
2023/09/12 00:26:38;;;;;;;10.73;9.43;;;;;;;;;;5089549;28;20032;-67
2023/09/12 00:29:03;;;;;;;11.52;8.90;;;;;;;;;;5083736;28;20271;-66
2023/09/12 00:31:28;;;;;;;9.77;8.77;;;;;;;;;;5088266;28;20390;-67
2023/09/12 00:33:53;;;;;;;12.63;9.73;;;;;;;;;;5079347;28;20032;-68
2023/09/12 00:36:19;;;;;;;10.53;8.60;;;;;;;;;;5080019;28;20020;-66
2023/09/12 00:38:44;;;;;;;10.43;8.90;;;;;;;;;;5091912;28;20760;-67
2023/09/12 00:41:09;;;;;;;12.30;9.53;;;;;;;;;;5085814;28;20622;-68
2023/09/12 00:43:34;;;;;;;14.93;9.07;;;;;;;;;;5082511;28;20290;-68
2023/09/12 00:45:59;;;;;;;11.77;10.00;;;;;;;;;;5078820;28;20293;-67
2023/09/12 00:48:25;;;;;;;12.97;9.53;;;;;;;;;;5085904;28;20274;-67
2023/09/12 00:50:51;;;;;;;10.98;8.80;;;;;;;;;;5075335;28;20285;-68
2023/09/12 00:53:17;;;;;;;10.13;8.15;;;;;;;;;;5076683;28;20032;-67
2023/09/12 00:55:45;;;;;;;11.05;9.20;;;;;;;;;;5075018;28;20030;-68
2023/09/12 00:58:10;;;;;;;10.18;9.15;;;;;;;;;;5086933;28;20012;-67
2023/09/12 01:00:36;;;;;;;9.90;8.90;;;;;;;;;;5093415;28;20023;-67
2023/09/12 01:03:01;;;;;;;13.40;9.27;;;;;;;;;;5089935;28;20136;-67
2023/09/12 01:05:27;;;;;;;12.48;9.43;;;;;;;;;;5091244;28;20020;-67
2023/09/12 01:07:52;;;;;;;11.75;9.70;;;;;;;;;;5090213;28;20032;-67
2023/09/12 01:10:17;;;;;;;11.35;9.45;;;;;;;;;;5091004;28;20047;-67
2023/09/12 01:12:43;;;;;;;11.35;9.95;;;;;;;;;;5089180;28;20085;-67
2023/09/12 01:15:13;;;;;;;12.40;11.10;;;;;;;;;;5087935;28;20111;-67
2023/09/12 01:17:39;;;;;;;11.68;9.90;;;;;;;;;;5088144;28;20395;-67
2023/09/12 01:20:05;;;;;;;14.98;10.98;;;;;;;;;;5088312;28;20024;-66
2023/09/12 01:22:39;;;;;;;10.93;9.05;;;;;;;;;;5090392;28;20031;-67
2023/09/12 01:25:05;;;;;;;;;;;;;;;;;;5089717;28;20038;-67
2023/09/12 01:27:34;;;;;;;12.18;9.70;;;;;;;;;;5085199;28;20003;-67
2023/09/12 01:30:03;;;;;;;13.50;10.90;;;;;;;;;;5079709;28;20028;-67
2023/09/12 01:32:29;;;;;;;13.40;10.90;;;;;;;;;;5084318;28;20031;-67
2023/09/12 01:34:54;;;;;;;12.05;10.30;;;;;;;;;;5089660;28;20390;-68
2023/09/12 01:37:19;;;;;;;10.90;8.73;;;;;;;;;;5086813;28;20074;-68
2023/09/12 01:39:44;;;;;;;11.33;9.47;;;;;;;;;;5089834;28;20274;-68
2023/09/12 01:42:13;;;;;;;12.50;10.70;;;;;;;;;;5086754;28;20282;-68
2023/09/12 01:44:39;;;;;;;10.45;9.27;;;;;;;;;;5090545;28;20482;-67
2023/09/12 01:47:05;;;;;;;12.60;9.40;;;;;;;;;;5090102;28;20028;-67
2023/09/12 01:49:32;;;;;;;12.68;10.20;;;;;;;;;;5090119;28;20026;-68
2023/09/12 01:51:59;;;;;;;11.05;9.95;;;;;;;;;;5085310;28;20020;-67
2023/09/12 01:54:25;;;;;;;13.32;10.98;;;;;;;;;;5079489;28;20024;-68
2023/09/12 01:56:50;;;;;;;15.60;9.15;;;;;;;;;;5084345;28;20030;-68
2023/09/12 01:59:15;;;;;;;11.07;9.32;;;;;;;;;;5090467;28;20099;-68
2023/09/12 02:01:42;;;;;;;11.33;10.13;;;;;;;;;;5087488;28;20058;-68
2023/09/12 02:04:08;;;;;;;14.10;10.07;;;;;;;;;;5092071;28;20347;-67
2023/09/12 02:06:34;;;;;;;12.73;10.50;;;;;;;;;;5091329;28;20057;-67
2023/09/12 02:08:59;;;;;;;11.25;9.20;;;;;;;;;;5090921;28;20572;-68
2023/09/12 02:11:26;;;;;;;12.43;9.53;;;;;;;;;;5088083;28;20051;-68
2023/09/12 02:13:51;;;;;;;13.73;10.15;;;;;;;;;;5080868;28;20270;-68
2023/09/12 02:16:16;;;;;;;11.03;9.90;;;;;;;;;;5076820;28;20039;-68
2023/09/12 02:18:41;;;;;;;12.50;9.90;;;;;;;;;;5090138;28;20262;-67
2023/09/12 02:21:07;;;;;;;12.83;9.90;;;;;;;;;;5088902;28;20282;-68
2023/09/12 02:23:32;;;;;;;12.25;9.48;;;;;;;;;;5091632;28;20333;-68
2023/09/12 02:25:57;;;;;;;11.93;10.07;;;;;;;;;;5090367;28;20024;-68
2023/09/12 02:28:22;;;;;;;14.02;10.02;;;;;;;;;;5091617;28;20294;-68
2023/09/12 02:30:47;;;;;;;11.73;10.07;;;;;;;;;;5091264;28;20028;-69
2023/09/12 02:33:13;;;;;;;10.63;9.20;;;;;;;;;;5081089;28;20637;-69
2023/09/12 02:35:38;;;;;;;13.52;9.43;;;;;;;;;;5089822;28;20570;-68
2023/09/12 02:38:03;;;;;;;11.70;9.83;;;;;;;;;;5091534;28;20028;-69
2023/09/12 02:40:28;;;;;;;16.95;10.82;;;;;;;;;;5086878;28;20358;-69
2023/09/12 02:42:54;;;;;;;15.15;9.60;;;;;;;;;;5079836;28;20058;-68
2023/09/12 02:45:19;;;;;;;11.80;10.10;;;;;;;;;;5085818;28;20447;-69
2023/09/12 02:47:46;;;;;;;11.40;9.53;;;;;;;;;;5081819;28;20024;-68
2023/09/12 02:50:11;;;;;;;13.18;9.60;;;;;;;;;;5083346;28;20271;-68
2023/09/12 02:52:36;;;;;;;14.43;9.98;;;;;;;;;;5089506;28;20035;-68
2023/09/12 02:55:02;;;;;;;12.35;9.10;;;;;;;;;;5089513;28;20475;-68
2023/09/12 02:57:27;;;;;;;10.07;8.95;;;;;;;;;;5090266;28;20027;-68
2023/09/12 02:59:53;;;;;;;11.48;9.60;;;;;;;;;;5082998;28;20379;-68
2023/09/12 03:02:18;;;;;;;16.08;9.88;;;;;;;;;;5085984;28;20103;-69
2023/09/12 03:04:43;;;;;;;13.00;10.67;;;;;;;;;;5087030;28;20016;-68
2023/09/12 03:07:08;;;;;;;15.95;11.15;;;;;;;;;;5085316;28;20270;-68
2023/09/12 03:09:34;;;;;;;10.17;9.13;;;;;;;;;;5087578;28;20531;-68
2023/09/12 03:12:01;;;;;;;11.35;10.15;;;;;;;;;;5093230;28;20762;-68
2023/09/12 03:14:27;;;;;;;10.52;8.55;;;;;;;;;;5091507;28;20020;-68
2023/09/12 03:16:52;;;;;;;13.18;9.05;;;;;;;;;;5089745;28;20096;-68
2023/09/12 03:19:18;;;;;;;11.57;10.27;;;;;;;;;;5091531;28;20534;-68
2023/09/12 03:21:43;;;;;;;12.05;9.38;;;;;;;;;;5079858;28;20269;-68
2023/09/12 03:24:08;;;;;;;13.77;10.75;;;;;;;;;;5090457;28;20034;-68
2023/09/12 03:26:34;;;;;;;11.63;9.68;;;;;;;;;;5086441;28;20029;-69
2023/09/12 03:28:59;;;;;;;12.88;10.93;;;;;;;;;;5086598;28;20016;-68
2023/09/12 03:31:25;;;;;;;13.33;10.10;;;;;;;;;;5087854;28;20031;-68
2023/09/12 03:33:51;;;;;;;12.55;9.98;;;;;;;;;;5094126;28;20277;-68
2023/09/12 03:36:17;;;;;;;14.23;10.90;;;;;;;;;;5094353;28;20074;-69
2023/09/12 03:38:42;;;;;;;16.55;10.98;;;;;;;;;;5094437;28;20078;-68
2023/09/12 03:41:08;;;;;;;14.55;11.38;;;;;;;;;;5093916;28;20052;-68
2023/09/12 03:43:33;;;;;;;14.77;11.88;;;;;;;;;;5093666;28;20028;-68
2023/09/12 03:45:58;;;;;;;12.80;10.75;;;;;;;;;;5093518;28;20024;-68
2023/09/12 03:48:24;;;;;;;13.32;11.45;;;;;;;;;;5093197;28;20031;-68
2023/09/12 03:50:49;;;;;;;14.90;11.57;;;;;;;;;;5075928;28;20031;-68
2023/09/12 03:53:15;;;;;;;17.92;13.52;;;;;;;;;;5087448;28;20032;-68
2023/09/12 03:55:41;;;;;;;13.35;11.45;;;;;;;;;;5075326;28;20017;-68
2023/09/12 03:58:06;;;;;;;17.40;13.75;;;;;;;;;;5077531;28;20123;-69
2023/09/12 04:00:31;;;;;;;15.18;11.63;;;;;;;;;;5087257;28;20059;-68
2023/09/12 04:02:56;;;;;;;15.38;13.18;;;;;;;;;;5077972;28;20031;-68
2023/09/12 04:05:22;;;;;;;18.90;14.00;;;;;;;;;;5059795;28;20500;-68
2023/09/12 04:07:47;;;;;;;18.35;13.68;;;;;;;;;;5078711;28;20024;-68
2023/09/12 04:10:12;;;;;;;17.77;13.87;;;;;;;;;;5085240;28;20432;-68
2023/09/12 04:12:37;;;;;;;15.80;13.20;;;;;;;;;;5093076;28;20262;-68
2023/09/12 04:15:03;;;;;;;16.10;13.67;;;;;;;;;;5079269;28;20434;-68
2023/09/12 04:17:28;;;;;;;13.27;11.50;;;;;;;;;;5087970;28;20290;-68
2023/09/12 04:19:53;;;;;;;17.87;12.37;;;;;;;;;;5083536;28;20024;-68
2023/09/12 04:22:19;;;;;;;13.17;11.77;;;;;;;;;;5084646;28;20769;-68
2023/09/12 04:24:44;;;;;;;17.17;12.70;;;;;;;;;;5082514;28;20672;-68
2023/09/12 04:27:09;;;;;;;15.97;12.77;;;;;;;;;;5079852;28;20271;-68
2023/09/12 04:29:35;;;;;;;16.67;13.30;;;;;;;;;;5084929;28;20266;-68
2023/09/12 04:32:01;;;;;;;20.17;12.98;;;;;;;;;;5091550;28;20353;-69
2023/09/12 04:34:26;;;;;;;14.82;13.07;;;;;;;;;;5076154;28;20044;-68
2023/09/12 04:36:52;;;;;;;18.30;14.00;;;;;;;;;;5085191;28;20067;-68
2023/09/12 04:39:17;;;;;;;17.45;14.75;;;;;;;;;;5090627;28;20055;-68
2023/09/12 04:41:42;;;;;;;23.30;17.20;;;;;;;;;;5093381;28;20090;-68
2023/09/12 04:44:08;;;;;;;22.92;14.80;;;;;;;;;;5092908;28;20286;-67
2023/09/12 04:46:33;;;;;;;18.63;16.10;;;;;;;;;;5086060;28;20041;-66
2023/09/12 04:48:59;;;;;;;29.08;17.48;;;;;;;;;;5086324;28;20803;-67
2023/09/12 04:51:24;;;;;;;20.97;17.37;;;;;;;;;;5086141;28;20074;-67
2023/09/12 04:53:52;;;;;;;20.58;17.33;;;;;;;;;;5079464;28;20328;-68
2023/09/12 04:56:17;;;;;;;20.38;16.40;;;;;;;;;;5080018;28;20519;-68
2023/09/12 04:58:42;;;;;;;20.65;17.13;;;;;;;;;;5085239;28;20098;-67
2023/09/12 05:01:09;;;;;;;20.47;15.23;;;;;;;;;;5091735;28;20035;-67
2023/09/12 05:03:34;;;;;;;19.27;16.27;;;;;;;;;;5088943;28;20343;-66
2023/09/12 05:05:59;;;;;;;22.95;17.23;;;;;;;;;;5091524;28;20035;-66
2023/09/12 05:08:24;;;;;;;22.43;17.10;;;;;;;;;;5081978;28;20035;-66
2023/09/12 05:10:50;;;;;;;21.43;17.17;;;;;;;;;;5088320;28;20808;-66
2023/09/12 05:13:15;;;;;;;20.80;16.70;;;;;;;;;;5074512;28;20633;-66
2023/09/12 05:15:41;;;;;;;20.42;17.35;;;;;;;;;;5089570;28;20343;-67
2023/09/12 05:18:06;;;;;;;21.80;18.27;;;;;;;;;;5089114;28;20031;-67
2023/09/12 05:20:32;;;;;;;24.58;18.15;;;;;;;;;;5089916;28;20028;-68
2023/09/12 05:22:57;;;;;;;24.75;17.38;;;;;;;;;;5086776;28;20104;-67
2023/09/12 05:25:22;;;;;;;26.13;18.53;;;;;;;;;;5091660;28;20063;-68
2023/09/12 05:27:47;;;;;;;20.33;17.00;;;;;;;;;;5076892;28;20274;-67
2023/09/12 05:30:13;;;;;;;21.57;18.53;;;;;;;;;;5080733;28;20273;-69
2023/09/12 05:32:38;;;;;;;23.10;18.10;;;;;;;;;;5085575;28;20262;-67
2023/09/12 05:35:03;;;;;;;19.92;17.45;;;;;;;;;;5073002;28;20105;-67
2023/09/12 05:37:29;;;;;;;20.98;16.98;;;;;;;;;;5075150;28;20050;-67
2023/09/12 05:39:54;;;;;;;22.08;19.17;;;;;;;;;;5085792;28;20039;-67
2023/09/12 05:42:20;;;;;;;20.33;16.87;;;;;;;;;;5080679;28;20107;-67
2023/09/12 05:44:47;;;;;;;21.08;18.58;;;;;;;;;;5086776;28;20274;-66
2023/09/12 05:47:12;;;;;;;19.98;16.83;;;;;;;;;;5077430;28;20687;-66
2023/09/12 05:49:37;;;;;;;23.60;18.47;;;;;;;;;;5086341;28;20023;-66
2023/09/12 05:52:03;;;;;;;21.10;17.10;;;;;;;;;;5079726;28;20917;-66
2023/09/12 05:54:28;;;;;;;22.42;18.33;;;;;;;;;;5086961;28;20606;-67
2023/09/12 05:56:53;;;;;;;21.77;17.70;;;;;;;;;;5081643;28;20366;-66
2023/09/12 05:59:19;;;;;;;22.05;19.42;;;;;;;;;;5089689;28;20277;-66
2023/09/12 06:01:45;;;;;;;21.27;17.83;;;;;;;;;;5076752;28;20050;-66
2023/09/12 06:04:10;;;;;;;23.38;19.27;;;;;;;;;;5089552;28;20384;-66
2023/09/12 06:06:35;;;;;;;20.87;17.47;;;;;;;;;;5087349;28;20100;-68
2023/09/12 06:09:00;;;;;;;19.58;16.13;;;;;;;;;;5082898;28;20286;-66
2023/09/12 06:11:26;;;;;;;21.45;17.73;;;;;;;;;;5082417;28;20103;-66
2023/09/12 06:13:51;;;;;;;18.52;14.85;;;;;;;;;;5089031;28;20097;-66
2023/09/12 06:16:16;;;;;;;22.20;17.20;;;;;;;;;;5087832;28;20019;-66
2023/09/12 06:18:42;;;;;;;18.30;15.25;;;;;;;;;;5087187;28;20281;-66
2023/09/12 06:21:08;;;;;;;20.02;16.48;;;;;;;;;;5088123;28;20024;-66
2023/09/12 06:23:33;;;;;;;22.40;16.25;;;;;;;;;;5068995;28;20391;-66
2023/09/12 06:25:59;;;;;;;22.25;17.60;;;;;;;;;;5086100;28;20020;-66
2023/09/12 06:28:25;;;;;;;22.07;17.57;;;;;;;;;;5085135;28;20419;-66
2023/09/12 06:30:50;;;;;;;21.17;17.67;;;;;;;;;;5085306;28;20274;-67
2023/09/12 06:33:15;;;;;;;22.73;17.20;;;;;;;;;;5076176;28;20031;-66
2023/09/12 06:35:40;;;;;;;22.87;19.07;;;;;;;;;;5079821;28;20276;-67
2023/09/12 06:38:06;;;;;;;28.13;19.17;;;;;;;;;;5075893;28;20286;-66
2023/09/12 06:40:31;;;;;;;24.57;17.27;;;;;;;;;;5083125;28;20271;-67
2023/09/12 06:42:56;;;;;;;23.65;18.08;;;;;;;;;;5077015;28;20372;-67
2023/09/12 06:45:21;;;;;;;20.53;15.60;;;;;;;;;;5080448;28;20039;-66
2023/09/12 06:47:47;;;;;;;21.33;16.23;;;;;;;;;;5075021;28;20285;-66
2023/09/12 06:50:12;;;;;;;24.53;20.20;;;;;;;;;;5076361;28;20267;-66
2023/09/12 06:52:37;;;;;;;23.38;20.35;;;;;;;;;;5076183;28;20813;-66
2023/09/12 06:55:03;;;;;;;22.15;19.15;;;;;;;;;;5077138;28;20020;-66
2023/09/12 06:57:29;;;;;;;23.77;19.35;;;;;;;;;;5078090;28;20024;-66
2023/09/12 06:59:57;;;;;;;22.58;19.40;;;;;;;;;;5090887;28;20031;-66
2023/09/12 07:02:23;;;;;;;27.05;20.90;;;;;;;;;;5091260;28;20490;-66
2023/09/12 07:04:48;;;;;;;27.60;20.63;;;;;;;;;;5089361;28;20039;-67
2023/09/12 07:07:13;;;;;;;27.43;21.93;;;;;;;;;;5089729;28;20737;-66
2023/09/12 07:09:38;;;;;;;29.73;21.87;;;;;;;;;;5089553;28;20699;-66
2023/09/12 07:12:05;;;;;;;26.23;21.17;;;;;;;;;;5080409;28;20274;-67
2023/09/12 07:14:31;;;;;;;21.67;19.25;;;;;;;;;;5083590;28;20266;-67
2023/09/12 07:16:56;;;;;;;24.77;19.95;;;;;;;;;;5078970;28;20055;-67
2023/09/12 07:19:22;;;;;;;20.17;17.55;;;;;;;;;;5083494;28;20032;-67
2023/09/12 07:21:47;;;;;;;22.67;17.45;;;;;;;;;;5080023;28;20020;-67
2023/09/12 07:24:12;;;;;;;13.90;11.10;;;;;;;;;;5090275;28;20081;-67
2023/09/12 07:26:37;;;;;;;15.47;11.50;;;;;;;;;;5088909;28;20771;-66
2023/09/12 07:29:05;;;;;;;10.25;8.43;;;;;;;;;;5083885;28;20282;-67
2023/09/12 07:31:30;;;;;;;9.43;7.20;;;;;;;;;;5075416;28;20107;-67
2023/09/12 07:33:55;;;;;;;9.07;7.15;;;;;;;;;;5077034;28;20158;-67
2023/09/12 07:36:21;;;;;;;8.82;6.55;;;;;;;;;;5074190;28;20028;-67
2023/09/12 07:38:47;;;;;;;12.10;8.93;;;;;;;;;;5073888;28;20442;-67
2023/09/12 07:41:12;;;;;;;12.02;9.02;;;;;;;;;;5072689;28;20298;-67
2023/09/12 07:43:37;;;;;;;9.82;7.93;;;;;;;;;;5072558;28;20032;-67
2023/09/12 07:46:03;;;;;;;9.00;6.68;;;;;;;;;;5070490;28;20038;-67
2023/09/12 07:48:29;;;;;;;9.60;7.35;;;;;;;;;;5070745;28;20031;-67
2023/09/12 07:50:54;;;;;;;9.38;7.05;;;;;;;;;;5070382;28;20490;-66
2023/09/12 07:53:19;;;;;;;9.37;7.07;;;;;;;;;;5082922;28;20024;-67
2023/09/12 07:55:48;;;;;;;8.32;7.13;;;;;;;;;;5077194;28;20703;-67
2023/09/12 07:58:13;;;;;;;7.25;5.28;;;;;;;;;;5082082;28;20028;-68
2023/09/12 08:00:39;;;;;;;6.13;5.20;;;;;;;;;;5088997;28;20036;-67
2023/09/12 08:03:04;;;;;;;7.40;5.22;;;;;;;;;;5078059;28;20043;-67
2023/09/12 08:05:29;;;;;;;10.13;7.07;;;;;;;;;;5086634;28;20031;-67
2023/09/12 08:07:55;;;;;;;7.83;6.10;;;;;;;;;;5084605;28;20271;-67
2023/09/12 08:10:20;;;;;;;9.27;6.55;;;;;;;;;;5084353;28;20692;-67
2023/09/12 08:12:45;;;;;;;8.60;6.50;;;;;;;;;;5087181;28;20023;-67
2023/09/12 08:15:10;;;;;;;9.30;8.07;;;;;;;;;;5075174;28;20870;-67
2023/09/12 08:17:36;;;;;;;8.70;7.40;;;;;;;;;;5070872;28;20610;-67
2023/09/12 08:20:01;;;;;;;9.05;6.80;;;;;;;;;;5061761;28;20434;-67
2023/09/12 08:22:27;;;;;;;9.30;6.85;;;;;;;;;;5083478;28;20027;-68
2023/09/12 08:24:52;;;;;;;7.68;6.15;;;;;;;;;;5086633;28;20508;-67
2023/09/12 08:27:17;;;;;;;8.50;5.50;;;;;;;;;;5085012;28;20032;-68
2023/09/12 08:29:44;;;;;;;8.57;4.83;;;;;;;;;;5087013;28;20326;-68
2023/09/12 08:32:09;;;;;;;7.35;4.72;;;;;;;;;;5087914;28;20281;-67
2023/09/12 08:34:35;;;;;;;6.07;3.90;;;;;;;;;;5092803;28;20046;-68
2023/09/12 08:37:00;;;;;;;6.03;4.20;;;;;;;;;;5078661;28;20031;-67
2023/09/12 08:39:27;;;;;;;6.00;4.20;;;;;;;;;;5092539;28;20278;-67
2023/09/12 08:41:53;;;;;;;7.70;4.25;;;;;;;;;;5090676;28;20278;-67
2023/09/12 08:44:19;;;;;;;5.70;3.72;;;;;;;;;;5089449;28;20039;-67
2023/09/12 08:46:44;;;;;;;6.13;4.20;;;;;;;;;;5087430;28;20059;-67
2023/09/12 08:49:10;;;;;;;8.13;3.90;;;;;;;;;;5081237;28;20806;-67
2023/09/12 08:51:37;;;;;;;5.35;3.97;;;;;;;;;;5080867;28;20024;-67
2023/09/12 08:54:03;;;;;;;5.75;4.07;;;;;;;;;;5073053;28;20101;-67
2023/09/12 08:56:29;;;;;;;5.88;4.70;;;;;;;;;;5088653;28;20028;-68
2023/09/12 08:58:55;;;;;;;5.97;4.07;;;;;;;;;;5083362;28;20386;-68
2023/09/12 09:01:20;;;;;;;7.82;5.10;;;;;;;;;;5085899;28;20051;-68
2023/09/12 09:03:46;;;;;;;8.00;5.70;;;;;;;;;;5077848;28;20476;-67
2023/09/12 09:06:11;;;;;;;10.32;6.45;;;;;;;;;;5083338;28;20027;-67
2023/09/12 09:08:37;;;;;;;6.50;4.88;;;;;;;;;;5088676;28;20023;-66
2023/09/12 09:11:05;;;;;;;6.85;5.30;;;;;;;;;;5086658;28;20476;-66
2023/09/12 09:13:30;;;;;;;7.30;4.63;;;;;;;;;;5078148;28;20478;-67
2023/09/12 09:16:15;;;;;;;6.25;4.40;;;;;;;;;;5079563;28;20039;-66
2023/09/12 09:18:58;;;;;;;5.30;4.57;;;;;;;;;;5084643;28;20051;-66
2023/09/12 09:21:25;;;;;;;7.07;5.05;;;;;;;;;;5084507;28;20466;-67
2023/09/12 09:23:51;;;;;;;6.18;5.13;;;;;;;;;;5088485;28;20028;-67
2023/09/12 09:26:16;;;;;;;6.68;4.85;;;;;;;;;;5084719;28;20034;-67
2023/09/12 09:28:41;;;;;;;8.50;5.68;;;;;;;;;;5080510;28;20029;-66
2023/09/12 09:31:10;;;;;;;5.70;4.50;;;;;;;;;;5089432;28;20016;-67
2023/09/12 09:33:36;;;;;;;6.95;4.78;;;;;;;;;;5091730;28;20039;-67
2023/09/12 09:36:05;;;;;;;7.22;4.65;;;;;;;;;;5082879;28;20088;-67
2023/09/12 09:38:30;;;;;;;6.20;4.28;;;;;;;;;;5084345;28;20493;-65
2023/09/12 09:40:56;;;;;;;6.28;4.60;;;;;;;;;;5074061;28;20032;-67
2023/09/12 09:43:22;;;;;;;5.20;4.22;;;;;;;;;;5082212;28;20432;-67
2023/09/12 09:45:47;;;;;;;6.43;4.10;;;;;;;;;;5073685;28;20043;-67
2023/09/12 09:48:22;;;;;;;5.43;3.83;;;;;;;;;;5072113;28;20045;-67
2023/09/12 09:50:47;;;;;;;7.28;4.30;;;;;;;;;;5085206;28;20063;-67
2023/09/12 09:53:13;;;;;;;5.80;4.40;;;;;;;;;;5081873;28;20052;-66
2023/09/12 09:55:38;;;;;;;5.57;4.70;;;;;;;;;;5077086;28;20320;-67
2023/09/12 09:58:06;;;;;;;6.43;4.30;;;;;;;;;;5073105;28;20028;-67
2023/09/12 10:00:33;;;;;;;7.30;4.45;;;;;;;;;;5090600;28;20308;-67
2023/09/12 10:02:59;;;;;;;5.65;4.15;;;;;;;;;;5090719;28;20035;-67
2023/09/12 10:05:24;;;;;;;5.43;4.22;;;;;;;;;;5087157;28;20025;-67
2023/09/12 10:07:50;;;;;;;6.75;4.60;;;;;;;;;;5089368;28;20046;-67
2023/09/12 10:10:19;;;;;;;4.63;3.85;;;;;;;;;;5079673;28;20434;-67
2023/09/12 10:13:03;;;;;;;5.07;4.05;;;;;;;;;;5091905;28;20020;-67
2023/09/12 10:15:30;;;;;;;6.40;4.15;;;;;;;;;;5091246;28;20081;-67
2023/09/12 10:17:57;;;;;;;7.05;4.47;;;;;;;;;;5091860;28;20031;-67
2023/09/12 10:20:24;;;;;;;6.72;4.40;;;;;;;;;;5077086;28;20031;-67
2023/09/12 10:23:11;;;;;;;5.35;3.80;;;;;;;;;;5073543;28;20382;-67
2023/09/12 10:25:37;;;;;;;5.30;4.05;;;;;;;;;;5071762;28;20029;-67
2023/09/12 10:28:06;;;;;;;6.82;4.60;;;;;;;;;;5085502;28;20119;-67
2023/09/12 10:30:32;;;;;;;6.72;4.43;;;;;;;;;;5091573;28;20023;-67
2023/09/12 10:32:57;;;;;;;6.57;5.57;;;;;;;;;;5077922;28;20025;-67
2023/09/12 10:35:23;;;;;;;6.13;4.75;;;;;;;;;;5092140;28;20027;-67
2023/09/12 10:37:49;;;;;;;5.60;4.32;;;;;;;;;;5091253;28;20032;-67
2023/09/12 10:40:15;;;;;;;5.13;3.95;;;;;;;;;;5088998;28;20103;-67
2023/09/12 10:42:40;;;;;;;6.13;4.63;;;;;;;;;;5088951;28;20035;-67
2023/09/12 10:45:08;;;;;;;9.23;4.63;;;;;;;;;;5086997;28;20020;-67
2023/09/12 10:47:34;;;;;;;7.03;5.35;;;;;;;;;;5088376;28;20482;-67
2023/09/12 10:49:59;;;;;;;6.28;3.95;;;;;;;;;;5087260;28;20024;-67
2023/09/12 10:52:25;;;;;;;5.47;4.00;;;;;;;;;;5086830;28;20023;-67
2023/09/12 10:54:51;;;;;;;7.25;5.47;;;;;;;;;;5075622;28;20027;-67
2023/09/12 10:57:16;;;;;;;7.20;5.07;;;;;;;;;;5088467;28;20099;-68
2023/09/12 11:00:00;;;;;;;8.45;5.93;;;;;;;;;;5091650;28;20109;-67
2023/09/12 11:02:29;;;;;;;7.22;5.57;;;;;;;;;;5074693;28;20025;-67
2023/09/12 11:04:55;;;;;;;5.95;4.88;;;;;;;;;;5078269;28;20058;-67
2023/09/12 11:07:30;;;;;;;8.00;4.88;;;;;;;;;;5077793;28;20024;-67
2023/09/12 11:10:19;;;;;;;5.90;4.45;;;;;;;;;;5077267;28;20028;-67
2023/09/12 11:12:49;;;;;;;6.30;5.32;;;;;;;;;;5079652;28;20386;-67
2023/09/12 11:15:15;;;;;;;6.63;4.63;;;;;;;;;;5079555;28;20368;-67
2023/09/12 11:17:47;;;;;;;7.47;4.93;;;;;;;;;;5079933;28;20050;-67
2023/09/12 11:20:14;;;;;;;6.97;4.93;;;;;;;;;;5077444;28;20028;-67
2023/09/12 11:22:44;;;;;;;7.05;5.00;;;;;;;;;;5080306;28;20103;-67
2023/09/12 11:25:15;;;;;;;7.07;5.22;;;;;;;;;;5079035;28;20116;-67
2023/09/12 11:28:03;;;;;;;6.20;5.03;;;;;;;;;;5082440;28;20059;-67
2023/09/12 11:30:32;;;;;;;6.00;4.72;;;;;;;;;;5078590;28;20028;-67
2023/09/12 11:32:58;;;;;;;5.72;4.90;;;;;;;;;;5086216;28;20033;-66
2023/09/12 11:35:27;;;;;;;6.95;5.20;;;;;;;;;;5089388;28;20020;-67
2023/09/12 11:37:54;;;;;;;6.13;5.28;;;;;;;;;;5085733;28;20037;-67
2023/09/12 11:40:40;;;;;;;6.68;5.30;;;;;;;;;;5075657;28;20031;-67
2023/09/12 11:43:06;;;;;;;8.10;6.30;;;;;;;;;;5074656;28;20032;-67
2023/09/12 11:45:32;;;;;;;6.45;4.75;;;;;;;;;;5076674;28;20021;-68
2023/09/12 11:47:58;;;;;;;6.05;5.00;;;;;;;;;;5075411;28;20479;-67
2023/09/12 11:50:30;;;;;;;6.20;5.23;;;;;;;;;;5075869;28;20035;-67
2023/09/12 11:53:05;;;;;;;7.35;5.53;;;;;;;;;;5075647;28;20032;-67
2023/09/12 11:55:53;;;;;;;7.22;4.50;;;;;;;;;;5075358;28;20048;-67
2023/09/12 11:58:19;;;;;;;6.32;4.95;;;;;;;;;;5089449;28;20052;-67
2023/09/12 12:00:51;;;;;;;6.10;4.28;;;;;;;;;;5086309;28;20048;-67
2023/09/12 12:03:17;;;;;;;7.10;4.75;;;;;;;;;;5077213;28;20087;-67
2023/09/12 12:05:43;;;;;;;7.03;5.07;;;;;;;;;;5076041;28;20131;-67
2023/09/12 12:08:09;;;;;;;5.38;3.72;;;;;;;;;;5077848;28;20522;-67
2023/09/12 12:10:35;;;;;;;5.78;4.57;;;;;;;;;;5074783;28;20020;-67
2023/09/12 12:13:04;;;;;;;6.32;4.85;;;;;;;;;;5075615;28;20107;-67
2023/09/12 12:15:29;;;;;;;5.20;4.22;;;;;;;;;;5075291;28;20459;-67
2023/09/12 12:17:55;;;;;;;5.45;4.82;;;;;;;;;;5075503;28;20028;-67
2023/09/12 12:20:20;;;;;;;8.02;4.90;;;;;;;;;;5074278;28;20044;-67
2023/09/12 12:22:45;;;;;;;7.10;4.90;;;;;;;;;;5074466;28;20078;-67
2023/09/12 12:25:11;;;;;;;6.10;4.73;;;;;;;;;;5073956;28;20032;-67
2023/09/12 12:27:40;;;;;;;7.28;5.13;;;;;;;;;;5073972;28;20283;-67
2023/09/12 12:30:09;;;;;;;6.15;4.68;;;;;;;;;;5083614;28;20073;-67
2023/09/12 12:32:37;;;;;;;5.70;4.85;;;;;;;;;;5093615;28;20032;-67
2023/09/12 12:35:02;;;;;;;6.53;4.80;;;;;;;;;;5081521;28;20063;-67
2023/09/12 12:37:30;;;;;;;8.55;5.47;;;;;;;;;;5090436;28;20051;-67
2023/09/12 12:39:56;;;;;;;5.78;4.85;;;;;;;;;;5089854;28;20433;-68
2023/09/12 12:42:23;;;;;;;8.85;6.00;;;;;;;;;;5090404;28;20028;-67
2023/09/12 12:44:52;;;;;;;7.63;6.47;;;;;;;;;;5090579;28;20020;-68
2023/09/12 12:47:17;;;;;;;6.50;5.80;;;;;;;;;;5082992;28;20028;-67
2023/09/12 12:49:43;;;;;;;7.87;6.40;;;;;;;;;;5081983;28;20102;-68
2023/09/12 12:52:11;;;;;;;6.53;5.22;;;;;;;;;;5088468;28;20285;-68
2023/09/12 12:54:37;;;;;;;7.10;5.55;;;;;;;;;;5089578;28;20020;-67
2023/09/12 12:57:02;;;;;;;8.00;6.13;;;;;;;;;;5089572;28;20457;-67
2023/09/12 12:59:29;;;;;;;6.55;5.85;;;;;;;;;;5091814;28;20343;-67
2023/09/12 13:01:54;;;;;;;8.27;6.40;;;;;;;;;;5091960;28;20031;-67
2023/09/12 13:04:20;;;;;;;8.10;6.27;;;;;;;;;;5092635;28;20028;-68
2023/09/12 13:06:46;;;;;;;7.68;6.15;;;;;;;;;;5090154;28;20274;-68
2023/09/12 13:09:11;;;;;;;7.57;5.93;;;;;;;;;;5090469;28;20028;-68
2023/09/12 13:11:37;;;;;;;7.85;6.10;;;;;;;;;;5086878;28;20320;-68
2023/09/12 13:14:09;;;;;;;7.05;5.57;;;;;;;;;;5089688;28;20020;-67
2023/09/12 13:16:34;;;;;;;8.23;6.55;;;;;;;;;;5084860;28;20051;-67
2023/09/12 13:19:00;;;;;;;7.18;5.72;;;;;;;;;;5089438;28;20043;-67
2023/09/12 13:21:25;;;;;;;8.37;5.67;;;;;;;;;;5088381;28;20038;-67
2023/09/12 13:23:50;;;;;;;7.05;6.18;;;;;;;;;;5090223;28;20298;-67
2023/09/12 13:26:16;;;;;;;7.90;5.88;;;;;;;;;;5088131;28;20031;-67
2023/09/12 13:28:41;;;;;;;7.18;5.55;;;;;;;;;;5090225;28;20024;-67
2023/09/12 13:31:06;;;;;;;8.27;6.10;;;;;;;;;;5089796;28;20028;-68
2023/09/12 13:33:32;;;;;;;6.75;5.22;;;;;;;;;;5083428;28;20486;-68
2023/09/12 13:35:57;;;;;;;9.23;5.67;;;;;;;;;;5088296;28;20448;-67
2023/09/12 13:38:23;;;;;;;7.37;6.43;;;;;;;;;;5087315;28;20020;-67
2023/09/12 13:40:48;;;;;;;6.80;5.10;;;;;;;;;;5086740;28;20035;-68
2023/09/12 13:43:14;;;;;;;7.30;5.50;;;;;;;;;;5081370;28;20032;-68
2023/09/12 13:45:40;;;;;;;9.38;5.97;;;;;;;;;;5082770;28;20147;-67
2023/09/12 13:48:05;;;;;;;6.78;5.68;;;;;;;;;;5089145;28;20024;-68
2023/09/12 13:50:31;;;;;;;6.43;4.97;;;;;;;;;;5092281;28;20024;-67
2023/09/12 13:53:03;;;;;;;7.00;5.05;;;;;;;;;;5090963;28;20024;-68
2023/09/12 13:55:29;;;;;;;6.65;5.40;;;;;;;;;;5087282;28;20066;-68
2023/09/12 13:57:54;;;;;;;7.85;5.38;;;;;;;;;;5083735;28;20036;-67
2023/09/12 14:00:20;;;;;;;7.33;5.30;;;;;;;;;;5091077;28;20050;-67
2023/09/12 14:02:45;;;;;;;8.30;5.00;;;;;;;;;;5091664;28;20506;-67
2023/09/12 14:05:11;;;;;;;6.57;5.40;;;;;;;;;;5083040;28;20278;-67
2023/09/12 14:07:38;;;;;;;6.05;5.15;;;;;;;;;;5088891;28;20367;-67
2023/09/12 14:10:03;;;;;;;8.27;5.78;;;;;;;;;;5079873;28;20498;-67
2023/09/12 14:12:28;;;;;;;7.25;5.75;;;;;;;;;;5076888;28;20107;-67
2023/09/12 14:14:54;;;;;;;7.17;5.77;;;;;;;;;;5082461;28;20474;-67
2023/09/12 14:17:20;;;;;;;6.03;5.43;;;;;;;;;;5091146;28;20266;-67
2023/09/12 14:19:45;;;;;;;8.63;5.85;;;;;;;;;;5085041;28;20089;-67
2023/09/12 14:22:10;;;;;;;5.83;4.70;;;;;;;;;;5089134;28;20541;-67
2023/09/12 14:24:35;;;;;;;8.53;5.77;;;;;;;;;;5082633;28;20286;-67